sensor_id;sensor_type;location;lat;lon;timestamp;P1;durP1;ratioP1;P2;durP2;ratioP2
29210;SDS011;16250;49.932;10.980;2023-01-15T00:00:58;12.30;;;11.90;;
29210;SDS011;16250;49.932;10.980;2023-01-15T00:03:25;12.30;;;11.90;;
29210;SDS011;16250;49.932;10.980;2023-01-15T00:05:51;13.07;;;12.57;;
29210;SDS011;16250;49.932;10.980;2023-01-15T00:08:16;12.85;;;12.35;;
29210;SDS011;16250;49.932;10.980;2023-01-15T00:10:42;11.88;;;11.48;;
29210;SDS011;16250;49.932;10.980;2023-01-15T00:13:08;13.07;;;12.57;;
29210;SDS011;16250;49.932;10.980;2023-01-15T00:15:34;12.57;;;12.18;;
29210;SDS011;16250;49.932;10.980;2023-01-15T00:18:00;11.57;;;11.18;;
29210;SDS011;16250;49.932;10.980;2023-01-15T00:20:25;13.05;;;12.57;;
29210;SDS011;16250;49.932;10.980;2023-01-15T00:22:51;12.02;;;11.63;;
29210;SDS011;16250;49.932;10.980;2023-01-15T00:25:17;13.23;;;12.73;;
29210;SDS011;16250;49.932;10.980;2023-01-15T00:28:01;10.18;;;9.77;;
29210;SDS011;16250;49.932;10.980;2023-01-15T00:30:27;11.88;;;11.48;;
29210;SDS011;16250;49.932;10.980;2023-01-15T00:32:52;12.48;;;11.98;;
29210;SDS011;16250;49.932;10.980;2023-01-15T00:35:19;11.45;;;11.05;;
29210;SDS011;16250;49.932;10.980;2023-01-15T00:37:46;11.90;;;11.40;;
29210;SDS011;16250;49.932;10.980;2023-01-15T00:40:12;12.70;;;12.23;;
29210;SDS011;16250;49.932;10.980;2023-01-15T00:42:38;12.07;;;11.57;;
29210;SDS011;16250;49.932;10.980;2023-01-15T00:45:05;14.38;;;13.82;;
29210;SDS011;16250;49.932;10.980;2023-01-15T00:47:34;11.55;;;11.15;;
29210;SDS011;16250;49.932;10.980;2023-01-15T00:50:04;10.95;;;10.55;;
29210;SDS011;16250;49.932;10.980;2023-01-15T00:52:31;11.48;;;11.07;;
29210;SDS011;16250;49.932;10.980;2023-01-15T00:54:57;11.20;;;10.80;;
29210;SDS011;16250;49.932;10.980;2023-01-15T00:57:23;13.90;;;13.40;;
29210;SDS011;16250;49.932;10.980;2023-01-15T00:59:49;12.10;;;11.70;;
29210;SDS011;16250;49.932;10.980;2023-01-15T01:02:14;11.52;;;10.90;;
29210;SDS011;16250;49.932;10.980;2023-01-15T01:04:40;11.40;;;11.00;;
29210;SDS011;16250;49.932;10.980;2023-01-15T01:07:05;11.93;;;11.43;;
29210;SDS011;16250;49.932;10.980;2023-01-15T01:09:31;12.32;;;11.93;;
29210;SDS011;16250;49.932;10.980;2023-01-15T01:11:56;12.95;;;12.45;;
29210;SDS011;16250;49.932;10.980;2023-01-15T01:14:22;12.15;;;11.75;;
29210;SDS011;16250;49.932;10.980;2023-01-15T01:16:48;12.40;;;12.00;;
29210;SDS011;16250;49.932;10.980;2023-01-15T01:19:14;12.05;;;11.65;;
29210;SDS011;16250;49.932;10.980;2023-01-15T01:21:44;12.20;;;11.80;;
29210;SDS011;16250;49.932;10.980;2023-01-15T01:24:11;11.75;;;11.25;;
29210;SDS011;16250;49.932;10.980;2023-01-15T01:26:48;12.68;;;12.23;;
29210;SDS011;16250;49.932;10.980;2023-01-15T01:29:15;14.95;;;14.45;;
29210;SDS011;16250;49.932;10.980;2023-01-15T01:31:42;12.43;;;12.02;;
29210;SDS011;16250;49.932;10.980;2023-01-15T01:34:08;13.45;;;12.93;;
29210;SDS011;16250;49.932;10.980;2023-01-15T01:36:35;12.98;;;12.48;;
29210;SDS011;16250;49.932;10.980;2023-01-15T01:39:03;13.02;;;12.52;;
29210;SDS011;16250;49.932;10.980;2023-01-15T01:41:30;11.98;;;11.57;;
29210;SDS011;16250;49.932;10.980;2023-01-15T01:43:58;11.38;;;10.98;;
29210;SDS011;16250;49.932;10.980;2023-01-15T01:46:25;12.68;;;12.23;;
29210;SDS011;16250;49.932;10.980;2023-01-15T01:48:54;12.45;;;12.05;;
29210;SDS011;16250;49.932;10.980;2023-01-15T01:51:26;13.95;;;13.45;;
29210;SDS011;16250;49.932;10.980;2023-01-15T01:53:55;10.25;;;9.85;;
29210;SDS011;16250;49.932;10.980;2023-01-15T01:56:23;13.23;;;12.73;;
29210;SDS011;16250;49.932;10.980;2023-01-15T01:58:50;13.60;;;13.10;;
29210;SDS011;16250;49.932;10.980;2023-01-15T02:01:19;10.18;;;9.77;;
29210;SDS011;16250;49.932;10.980;2023-01-15T02:03:45;14.65;;;14.15;;
29210;SDS011;16250;49.932;10.980;2023-01-15T02:06:12;14.55;;;14.05;;
29210;SDS011;16250;49.932;10.980;2023-01-15T02:08:39;11.45;;;11.05;;
29210;SDS011;16250;49.932;10.980;2023-01-15T02:11:06;12.73;;;12.25;;
29210;SDS011;16250;49.932;10.980;2023-01-15T02:13:37;11.20;;;10.80;;
29210;SDS011;16250;49.932;10.980;2023-01-15T02:21:00;12.40;;;12.00;;
29210;SDS011;16250;49.932;10.980;2023-01-15T02:26:49;13.85;;;13.35;;
29210;SDS011;16250;49.932;10.980;2023-01-15T02:29:31;14.07;;;13.57;;
29210;SDS011;16250;49.932;10.980;2023-01-15T02:33:01;16.75;;;16.15;;
29210;SDS011;16250;49.932;10.980;2023-01-15T02:35:21;12.30;;;11.90;;
29210;SDS011;16250;49.932;10.980;2023-01-15T02:37:53;12.80;;;12.30;;
29210;SDS011;16250;49.932;10.980;2023-01-15T02:40:22;14.32;;;13.82;;
29210;SDS011;16250;49.932;10.980;2023-01-15T02:42:50;12.27;;;11.88;;
29210;SDS011;16250;49.932;10.980;2023-01-15T02:45:29;14.23;;;13.73;;
29210;SDS011;16250;49.932;10.980;2023-01-15T02:47:57;12.52;;;12.10;;
29210;SDS011;16250;49.932;10.980;2023-01-15T02:50:29;12.00;;;11.52;;
29210;SDS011;16250;49.932;10.980;2023-01-15T02:53:00;14.55;;;14.05;;
29210;SDS011;16250;49.932;10.980;2023-01-15T02:55:30;14.07;;;13.57;;
29210;SDS011;16250;49.932;10.980;2023-01-15T02:58:01;13.30;;;12.80;;
29210;SDS011;16250;49.932;10.980;2023-01-15T03:00:29;13.00;;;12.40;;
29210;SDS011;16250;49.932;10.980;2023-01-15T03:03:02;11.35;;;10.95;;
29210;SDS011;16250;49.932;10.980;2023-01-15T03:05:38;14.32;;;13.82;;
29210;SDS011;16250;49.932;10.980;2023-01-15T03:08:07;14.68;;;14.18;;
29210;SDS011;16250;49.932;10.980;2023-01-15T03:10:41;12.90;;;12.40;;
29210;SDS011;16250;49.932;10.980;2023-01-15T03:13:18;15.02;;;14.52;;
29210;SDS011;16250;49.932;10.980;2023-01-15T03:15:52;12.98;;;12.48;;
29210;SDS011;16250;49.932;10.980;2023-01-15T03:18:43;15.57;;;14.98;;
29210;SDS011;16250;49.932;10.980;2023-01-15T03:21:11;13.50;;;13.00;;
29210;SDS011;16250;49.932;10.980;2023-01-15T03:23:41;14.68;;;14.18;;
29210;SDS011;16250;49.932;10.980;2023-01-15T03:26:11;13.98;;;13.48;;
29210;SDS011;16250;49.932;10.980;2023-01-15T03:28:37;16.33;;;15.73;;
29210;SDS011;16250;49.932;10.980;2023-01-15T03:31:05;14.20;;;13.70;;
29210;SDS011;16250;49.932;10.980;2023-01-15T03:33:30;14.02;;;13.52;;
29210;SDS011;16250;49.932;10.980;2023-01-15T03:35:58;13.95;;;13.45;;
29210;SDS011;16250;49.932;10.980;2023-01-15T03:38:26;14.68;;;14.18;;
29210;SDS011;16250;49.932;10.980;2023-01-15T03:43:31;14.43;;;13.93;;
29210;SDS011;16250;49.932;10.980;2023-01-15T03:46:08;13.93;;;13.43;;
29210;SDS011;16250;49.932;10.980;2023-01-15T03:51:25;14.90;;;14.40;;
29210;SDS011;16250;49.932;10.980;2023-01-15T03:54:05;15.35;;;14.77;;
29210;SDS011;16250;49.932;10.980;2023-01-15T03:56:37;14.00;;;13.50;;
29210;SDS011;16250;49.932;10.980;2023-01-15T03:59:14;15.35;;;14.77;;
29210;SDS011;16250;49.932;10.980;2023-01-15T04:01:46;14.32;;;13.82;;
29210;SDS011;16250;49.932;10.980;2023-01-15T04:04:15;15.27;;;14.70;;
29210;SDS011;16250;49.932;10.980;2023-01-15T04:06:41;14.90;;;14.40;;
29210;SDS011;16250;49.932;10.980;2023-01-15T04:09:09;17.40;;;16.80;;
29210;SDS011;16250;49.932;10.980;2023-01-15T04:11:36;17.75;;;17.15;;
29210;SDS011;16250;49.932;10.980;2023-01-15T04:14:02;16.23;;;15.63;;
29210;SDS011;16250;49.932;10.980;2023-01-15T04:16:28;15.30;;;14.75;;
29210;SDS011;16250;49.932;10.980;2023-01-15T04:18:55;17.15;;;16.55;;
29210;SDS011;16250;49.932;10.980;2023-01-15T04:21:21;15.65;;;15.05;;
29210;SDS011;16250;49.932;10.980;2023-01-15T04:23:47;16.23;;;15.63;;
29210;SDS011;16250;49.932;10.980;2023-01-15T04:26:13;18.35;;;17.65;;
29210;SDS011;16250;49.932;10.980;2023-01-15T04:28:39;16.92;;;16.33;;
29210;SDS011;16250;49.932;10.980;2023-01-15T04:31:05;18.10;;;17.42;;
29210;SDS011;16250;49.932;10.980;2023-01-15T04:33:31;18.05;;;17.35;;
29210;SDS011;16250;49.932;10.980;2023-01-15T04:36:00;15.80;;;15.20;;
29210;SDS011;16250;49.932;10.980;2023-01-15T04:38:27;16.73;;;16.13;;
29210;SDS011;16250;49.932;10.980;2023-01-15T04:40:53;17.40;;;16.80;;
29210;SDS011;16250;49.932;10.980;2023-01-15T04:43:37;15.93;;;15.32;;
29210;SDS011;16250;49.932;10.980;2023-01-15T04:46:22;19.20;;;18.50;;
29210;SDS011;16250;49.932;10.980;2023-01-15T04:48:49;15.80;;;15.20;;
29210;SDS011;16250;49.932;10.980;2023-01-15T04:51:14;18.67;;;17.98;;
29210;SDS011;16250;49.932;10.980;2023-01-15T04:53:40;18.75;;;18.05;;
29210;SDS011;16250;49.932;10.980;2023-01-15T04:56:06;19.05;;;18.35;;
29210;SDS011;16250;49.932;10.980;2023-01-15T04:58:32;19.98;;;19.27;;
29210;SDS011;16250;49.932;10.980;2023-01-15T05:00:58;18.55;;;17.85;;
29210;SDS011;16250;49.932;10.980;2023-01-15T05:03:29;18.92;;;18.23;;
29210;SDS011;16250;49.932;10.980;2023-01-15T05:05:59;19.55;;;18.85;;
29210;SDS011;16250;49.932;10.980;2023-01-15T05:08:26;19.38;;;18.67;;
29210;SDS011;16250;49.932;10.980;2023-01-15T05:10:52;18.92;;;18.23;;
29210;SDS011;16250;49.932;10.980;2023-01-15T05:13:18;18.98;;;18.27;;
29210;SDS011;16250;49.932;10.980;2023-01-15T05:15:43;19.65;;;18.95;;
29210;SDS011;16250;49.932;10.980;2023-01-15T05:18:10;18.40;;;17.70;;
29210;SDS011;16250;49.932;10.980;2023-01-15T05:20:39;18.60;;;17.90;;
29210;SDS011;16250;49.932;10.980;2023-01-15T05:23:05;17.20;;;16.60;;
29210;SDS011;16250;49.932;10.980;2023-01-15T05:25:31;18.48;;;17.77;;
29210;SDS011;16250;49.932;10.980;2023-01-15T05:27:57;18.45;;;17.75;;
29210;SDS011;16250;49.932;10.980;2023-01-15T05:30:22;19.15;;;18.45;;
29210;SDS011;16250;49.932;10.980;2023-01-15T05:32:48;16.90;;;16.30;;
29210;SDS011;16250;49.932;10.980;2023-01-15T05:35:13;19.45;;;18.75;;
29210;SDS011;16250;49.932;10.980;2023-01-15T05:37:39;16.23;;;15.63;;
29210;SDS011;16250;49.932;10.980;2023-01-15T05:40:04;13.18;;;12.68;;
29210;SDS011;16250;49.932;10.980;2023-01-15T05:42:30;19.40;;;18.70;;
29210;SDS011;16250;49.932;10.980;2023-01-15T05:44:56;15.82;;;15.18;;
29210;SDS011;16250;49.932;10.980;2023-01-15T05:47:21;27.25;;;26.25;;
29210;SDS011;16250;49.932;10.980;2023-01-15T05:49:47;18.15;;;17.27;;
29210;SDS011;16250;49.932;10.980;2023-01-15T05:52:14;21.17;;;20.38;;
29210;SDS011;16250;49.932;10.980;2023-01-15T05:54:39;24.63;;;23.73;;
29210;SDS011;16250;49.932;10.980;2023-01-15T05:57:05;25.77;;;24.77;;
29210;SDS011;16250;49.932;10.980;2023-01-15T05:59:31;21.48;;;20.67;;
29210;SDS011;16250;49.932;10.980;2023-01-15T06:01:57;20.98;;;20.17;;
29210;SDS011;16250;49.932;10.980;2023-01-15T06:04:23;25.70;;;24.70;;
29210;SDS011;16250;49.932;10.980;2023-01-15T06:06:50;22.25;;;21.45;;
29210;SDS011;16250;49.932;10.980;2023-01-15T06:09:17;26.60;;;25.60;;
29210;SDS011;16250;49.932;10.980;2023-01-15T06:11:43;25.27;;;24.33;;
29210;SDS011;16250;49.932;10.980;2023-01-15T06:14:09;25.80;;;24.80;;
29210;SDS011;16250;49.932;10.980;2023-01-15T06:16:38;20.63;;;19.85;;
29210;SDS011;16250;49.932;10.980;2023-01-15T06:19:05;21.85;;;21.05;;
29210;SDS011;16250;49.932;10.980;2023-01-15T06:21:32;22.33;;;21.52;;
29210;SDS011;16250;49.932;10.980;2023-01-15T06:23:58;22.00;;;21.20;;
29210;SDS011;16250;49.932;10.980;2023-01-15T06:26:24;24.25;;;23.35;;
29210;SDS011;16250;49.932;10.980;2023-01-15T06:28:50;25.02;;;24.13;;
29210;SDS011;16250;49.932;10.980;2023-01-15T06:31:17;20.02;;;19.33;;
29210;SDS011;16250;49.932;10.980;2023-01-15T06:33:44;23.10;;;22.25;;
29210;SDS011;16250;49.932;10.980;2023-01-15T06:36:11;17.15;;;16.55;;
29210;SDS011;16250;49.932;10.980;2023-01-15T06:38:41;25.13;;;24.23;;
29210;SDS011;16250;49.932;10.980;2023-01-15T06:41:09;21.80;;;21.00;;
29210;SDS011;16250;49.932;10.980;2023-01-15T06:43:56;18.52;;;17.83;;
29210;SDS011;16250;49.932;10.980;2023-01-15T06:46:42;22.13;;;21.33;;
29210;SDS011;16250;49.932;10.980;2023-01-15T06:49:33;20.23;;;19.52;;
29210;SDS011;16250;49.932;10.980;2023-01-15T06:51:59;21.75;;;20.95;;
29210;SDS011;16250;49.932;10.980;2023-01-15T06:54:25;20.00;;;19.30;;
29210;SDS011;16250;49.932;10.980;2023-01-15T06:56:51;20.77;;;20.00;;
29210;SDS011;16250;49.932;10.980;2023-01-15T06:59:17;28.77;;;26.13;;
29210;SDS011;16250;49.932;10.980;2023-01-15T07:01:43;15.70;;;15.10;;
29210;SDS011;16250;49.932;10.980;2023-01-15T07:04:08;21.38;;;20.58;;
29210;SDS011;16250;49.932;10.980;2023-01-15T07:06:34;20.30;;;19.58;;
29210;SDS011;16250;49.932;10.980;2023-01-15T07:08:59;19.08;;;18.38;;
29210;SDS011;16250;49.932;10.980;2023-01-15T07:11:25;19.70;;;19.00;;
29210;SDS011;16250;49.932;10.980;2023-01-15T07:13:51;19.40;;;18.70;;
29210;SDS011;16250;49.932;10.980;2023-01-15T07:16:30;20.83;;;20.02;;
29210;SDS011;16250;49.932;10.980;2023-01-15T07:18:59;16.25;;;15.65;;
29210;SDS011;16250;49.932;10.980;2023-01-15T07:21:25;18.17;;;17.48;;
29210;SDS011;16250;49.932;10.980;2023-01-15T07:23:51;18.05;;;17.42;;
29210;SDS011;16250;49.932;10.980;2023-01-15T07:26:16;16.23;;;15.63;;
29210;SDS011;16250;49.932;10.980;2023-01-15T07:28:42;16.30;;;15.70;;
29210;SDS011;16250;49.932;10.980;2023-01-15T07:31:08;19.23;;;18.52;;
29210;SDS011;16250;49.932;10.980;2023-01-15T07:33:33;18.35;;;17.65;;
29210;SDS011;16250;49.932;10.980;2023-01-15T07:36:02;16.98;;;16.38;;
29210;SDS011;16250;49.932;10.980;2023-01-15T07:38:28;15.25;;;14.68;;
29210;SDS011;16250;49.932;10.980;2023-01-15T07:40:57;14.80;;;14.30;;
29210;SDS011;16250;49.932;10.980;2023-01-15T07:43:42;18.00;;;17.33;;
29210;SDS011;16250;49.932;10.980;2023-01-15T07:46:27;16.88;;;16.27;;
29210;SDS011;16250;49.932;10.980;2023-01-15T07:49:12;18.88;;;18.17;;
29210;SDS011;16250;49.932;10.980;2023-01-15T07:51:56;11.30;;;10.90;;
29210;SDS011;16250;49.932;10.980;2023-01-15T07:54:22;18.92;;;18.23;;
29210;SDS011;16250;49.932;10.980;2023-01-15T07:56:48;13.15;;;12.65;;
29210;SDS011;16250;49.932;10.980;2023-01-15T07:59:15;4.32;;;4.22;;
29210;SDS011;16250;49.932;10.980;2023-01-15T08:01:41;5.88;;;5.68;;
29210;SDS011;16250;49.932;10.980;2023-01-15T08:04:06;11.35;;;10.95;;
29210;SDS011;16250;49.932;10.980;2023-01-15T08:06:33;12.10;;;11.70;;
29210;SDS011;16250;49.932;10.980;2023-01-15T08:08:59;6.13;;;5.93;;
29210;SDS011;16250;49.932;10.980;2023-01-15T08:11:25;5.40;;;5.20;;
29210;SDS011;16250;49.932;10.980;2023-01-15T08:14:09;8.32;;;8.02;;
29210;SDS011;16250;49.932;10.980;2023-01-15T08:16:53;5.85;;;5.65;;
29210;SDS011;16250;49.932;10.980;2023-01-15T08:19:18;2.35;;;2.25;;
29210;SDS011;16250;49.932;10.980;2023-01-15T08:21:44;5.88;;;5.68;;
29210;SDS011;16250;49.932;10.980;2023-01-15T08:24:10;5.45;;;5.25;;
29210;SDS011;16250;49.932;10.980;2023-01-15T08:26:35;5.75;;;5.55;;
29210;SDS011;16250;49.932;10.980;2023-01-15T08:29:01;7.20;;;7.00;;
29210;SDS011;16250;49.932;10.980;2023-01-15T08:31:26;6.57;;;6.38;;
29210;SDS011;16250;49.932;10.980;2023-01-15T08:33:52;4.50;;;4.40;;
29210;SDS011;16250;49.932;10.980;2023-01-15T08:36:17;5.40;;;5.20;;
29210;SDS011;16250;49.932;10.980;2023-01-15T08:38:43;6.30;;;6.10;;
29210;SDS011;16250;49.932;10.980;2023-01-15T08:41:09;5.88;;;5.68;;
29210;SDS011;16250;49.932;10.980;2023-01-15T08:43:34;6.78;;;6.57;;
29210;SDS011;16250;49.932;10.980;2023-01-15T08:46:01;6.57;;;6.38;;
29210;SDS011;16250;49.932;10.980;2023-01-15T08:48:28;6.35;;;6.15;;
29210;SDS011;16250;49.932;10.980;2023-01-15T08:50:56;5.70;;;5.50;;
29210;SDS011;16250;49.932;10.980;2023-01-15T08:53:22;6.82;;;6.63;;
29210;SDS011;16250;49.932;10.980;2023-01-15T08:55:48;5.43;;;5.22;;
29210;SDS011;16250;49.932;10.980;2023-01-15T08:58:14;6.43;;;6.22;;
29210;SDS011;16250;49.932;10.980;2023-01-15T09:00:41;6.00;;;5.80;;
29210;SDS011;16250;49.932;10.980;2023-01-15T09:03:07;5.38;;;5.18;;
29210;SDS011;16250;49.932;10.980;2023-01-15T09:05:33;6.00;;;5.80;;
29210;SDS011;16250;49.932;10.980;2023-01-15T09:08:00;6.18;;;5.97;;
29210;SDS011;16250;49.932;10.980;2023-01-15T09:10:25;7.13;;;6.93;;
29210;SDS011;16250;49.932;10.980;2023-01-15T09:12:51;6.32;;;6.13;;
29210;SDS011;16250;49.932;10.980;2023-01-15T09:15:16;5.00;;;4.80;;
29210;SDS011;16250;49.932;10.980;2023-01-15T09:17:42;5.78;;;5.57;;
29210;SDS011;16250;49.932;10.980;2023-01-15T09:20:09;6.68;;;6.47;;
29210;SDS011;16250;49.932;10.980;2023-01-15T09:22:37;6.75;;;6.55;;
29210;SDS011;16250;49.932;10.980;2023-01-15T09:25:03;6.43;;;6.22;;
29210;SDS011;16250;49.932;10.980;2023-01-15T09:27:29;7.22;;;7.00;;
29210;SDS011;16250;49.932;10.980;2023-01-15T09:29:54;5.68;;;5.47;;
29210;SDS011;16250;49.932;10.980;2023-01-15T09:32:21;4.90;;;4.70;;
29210;SDS011;16250;49.932;10.980;2023-01-15T09:34:46;4.15;;;4.00;;
29210;SDS011;16250;49.932;10.980;2023-01-15T09:37:12;7.03;;;6.82;;
29210;SDS011;16250;49.932;10.980;2023-01-15T09:39:38;7.70;;;7.40;;
29210;SDS011;16250;49.932;10.980;2023-01-15T09:45:07;7.47;;;7.22;;
29210;SDS011;16250;49.932;10.980;2023-01-15T09:55:20;5.47;;;5.28;;
29210;SDS011;16250;49.932;10.980;2023-01-15T09:57:53;5.53;;;5.32;;
29210;SDS011;16250;49.932;10.980;2023-01-15T10:00:22;6.80;;;6.60;;
29210;SDS011;16250;49.932;10.980;2023-01-15T10:02:54;6.22;;;5.82;;
29210;SDS011;16250;49.932;10.980;2023-01-15T10:05:35;5.22;;;5.03;;
29210;SDS011;16250;49.932;10.980;2023-01-15T10:08:11;5.85;;;5.65;;
29210;SDS011;16250;49.932;10.980;2023-01-15T10:10:49;5.47;;;5.28;;
29210;SDS011;16250;49.932;10.980;2023-01-15T10:13:21;4.13;;;4.03;;
29210;SDS011;16250;49.932;10.980;2023-01-15T10:15:53;3.63;;;3.53;;
29210;SDS011;16250;49.932;10.980;2023-01-15T10:18:20;4.57;;;4.47;;
29210;SDS011;16250;49.932;10.980;2023-01-15T10:20:54;5.60;;;5.40;;
29210;SDS011;16250;49.932;10.980;2023-01-15T10:26:28;5.18;;;4.97;;
29210;SDS011;16250;49.932;10.980;2023-01-15T10:28:59;5.10;;;4.90;;
29210;SDS011;16250;49.932;10.980;2023-01-15T10:32:01;3.03;;;2.92;;
29210;SDS011;16250;49.932;10.980;2023-01-15T10:34:25;7.05;;;6.75;;
29210;SDS011;16250;49.932;10.980;2023-01-15T10:47:13;5.97;;;5.78;;
29210;SDS011;16250;49.932;10.980;2023-01-15T10:49:41;5.45;;;5.25;;
29210;SDS011;16250;49.932;10.980;2023-01-15T10:55:05;5.55;;;5.35;;
29210;SDS011;16250;49.932;10.980;2023-01-15T10:58:10;6.35;;;6.15;;
29210;SDS011;16250;49.932;10.980;2023-01-15T11:00:37;5.68;;;5.47;;
29210;SDS011;16250;49.932;10.980;2023-01-15T11:03:04;7.20;;;7.00;;
29210;SDS011;16250;49.932;10.980;2023-01-15T11:05:42;6.40;;;6.20;;
29210;SDS011;16250;49.932;10.980;2023-01-15T11:08:23;6.50;;;6.30;;
29210;SDS011;16250;49.932;10.980;2023-01-15T11:17:18;6.17;;;5.97;;
29210;SDS011;16250;49.932;10.980;2023-01-15T11:20:04;10.10;;;9.70;;
29210;SDS011;16250;49.932;10.980;2023-01-15T11:22:42;6.50;;;6.30;;
29210;SDS011;16250;49.932;10.980;2023-01-15T11:25:08;6.72;;;6.53;;
29210;SDS011;16250;49.932;10.980;2023-01-15T11:27:35;8.70;;;8.40;;
29210;SDS011;16250;49.932;10.980;2023-01-15T11:30:04;6.18;;;5.97;;
29210;SDS011;16250;49.932;10.980;2023-01-15T11:32:32;7.43;;;7.13;;
29210;SDS011;16250;49.932;10.980;2023-01-15T11:35:01;6.93;;;6.65;;
29210;SDS011;16250;49.932;10.980;2023-01-15T11:37:33;9.05;;;8.75;;
29210;SDS011;16250;49.932;10.980;2023-01-15T11:39:59;7.82;;;7.53;;
29210;SDS011;16250;49.932;10.980;2023-01-15T11:42:35;6.97;;;6.78;;
29210;SDS011;16250;49.932;10.980;2023-01-15T11:45:20;10.00;;;9.60;;
29210;SDS011;16250;49.932;10.980;2023-01-15T11:51:04;4.13;;;4.03;;
29210;SDS011;16250;49.932;10.980;2023-01-15T11:53:39;6.30;;;6.07;;
29210;SDS011;16250;49.932;10.980;2023-01-15T11:56:10;4.70;;;4.50;;
29210;SDS011;16250;49.932;10.980;2023-01-15T12:01:19;3.75;;;3.65;;
29210;SDS011;16250;49.932;10.980;2023-01-15T12:03:57;4.45;;;4.35;;
29210;SDS011;16250;49.932;10.980;2023-01-15T12:06:24;5.05;;;4.85;;
29210;SDS011;16250;49.932;10.980;2023-01-15T12:08:52;6.30;;;6.10;;
29210;SDS011;16250;49.932;10.980;2023-01-15T12:14:48;5.93;;;5.72;;
29210;SDS011;16250;49.932;10.980;2023-01-15T12:25:40;5.35;;;5.15;;
29210;SDS011;16250;49.932;10.980;2023-01-15T12:28:21;4.18;;;3.97;;
29210;SDS011;16250;49.932;10.980;2023-01-15T12:33:28;8.45;;;8.15;;
29210;SDS011;16250;49.932;10.980;2023-01-15T12:36:07;9.93;;;9.52;;
29210;SDS011;16250;49.932;10.980;2023-01-15T12:38:46;12.65;;;11.82;;
29210;SDS011;16250;49.932;10.980;2023-01-15T12:41:29;7.40;;;7.15;;
29210;SDS011;16250;49.932;10.980;2023-01-15T12:44:18;9.02;;;8.73;;
29210;SDS011;16250;49.932;10.980;2023-01-15T12:47:11;5.85;;;5.65;;
29210;SDS011;16250;49.932;10.980;2023-01-15T12:49:45;7.20;;;7.00;;
29210;SDS011;16250;49.932;10.980;2023-01-15T12:52:17;8.05;;;7.75;;
29210;SDS011;16250;49.932;10.980;2023-01-15T12:54:49;7.15;;;6.95;;
29210;SDS011;16250;49.932;10.980;2023-01-15T12:57:38;7.85;;;7.55;;
29210;SDS011;16250;49.932;10.980;2023-01-15T13:00:16;8.95;;;8.65;;
29210;SDS011;16250;49.932;10.980;2023-01-15T13:05:52;7.32;;;7.10;;
29210;SDS011;16250;49.932;10.980;2023-01-15T13:10:54;7.22;;;7.03;;
29210;SDS011;16250;49.932;10.980;2023-01-15T13:13:24;7.40;;;7.18;;
29210;SDS011;16250;49.932;10.980;2023-01-15T13:21:41;9.25;;;8.95;;
29210;SDS011;16250;49.932;10.980;2023-01-15T13:32:57;10.75;;;10.35;;
29210;SDS011;16250;49.932;10.980;2023-01-15T13:35:47;12.52;;;12.10;;
29210;SDS011;16250;49.932;10.980;2023-01-15T13:38:17;11.13;;;10.73;;
29210;SDS011;16250;49.932;10.980;2023-01-15T13:40:47;9.27;;;8.98;;
29210;SDS011;16250;49.932;10.980;2023-01-15T13:43:36;11.18;;;10.70;;
29210;SDS011;16250;49.932;10.980;2023-01-15T13:46:07;8.13;;;7.82;;
29210;SDS011;16250;49.932;10.980;2023-01-15T13:48:41;8.68;;;8.38;;
29210;SDS011;16250;49.932;10.980;2023-01-15T13:51:45;9.25;;;8.95;;
29210;SDS011;16250;49.932;10.980;2023-01-15T13:54:14;13.10;;;12.60;;
29210;SDS011;16250;49.932;10.980;2023-01-15T13:56:42;8.50;;;8.20;;
29210;SDS011;16250;49.932;10.980;2023-01-15T13:59:29;12.65;;;12.15;;
29210;SDS011;16250;49.932;10.980;2023-01-15T14:04:51;8.57;;;8.18;;
29210;SDS011;16250;49.932;10.980;2023-01-15T14:07:20;8.77;;;8.48;;
29210;SDS011;16250;49.932;10.980;2023-01-15T14:10:19;10.00;;;9.63;;
29210;SDS011;16250;49.932;10.980;2023-01-15T14:19:35;7.97;;;7.68;;
29210;SDS011;16250;49.932;10.980;2023-01-15T14:21:59;8.95;;;8.65;;
29210;SDS011;16250;49.932;10.980;2023-01-15T14:24:53;8.88;;;8.57;;
29210;SDS011;16250;49.932;10.980;2023-01-15T14:33:06;8.63;;;8.23;;
29210;SDS011;16250;49.932;10.980;2023-01-15T14:35:41;7.25;;;7.05;;
29210;SDS011;16250;49.932;10.980;2023-01-15T14:38:11;8.60;;;8.30;;
29210;SDS011;16250;49.932;10.980;2023-01-15T14:40:59;7.07;;;6.88;;
29210;SDS011;16250;49.932;10.980;2023-01-15T14:43:28;7.75;;;7.45;;
29210;SDS011;16250;49.932;10.980;2023-01-15T14:45:57;8.55;;;8.25;;
29210;SDS011;16250;49.932;10.980;2023-01-15T14:48:54;8.48;;;8.18;;
29210;SDS011;16250;49.932;10.980;2023-01-15T14:54:05;10.20;;;9.80;;
29210;SDS011;16250;49.932;10.980;2023-01-15T14:56:44;8.23;;;7.93;;
29210;SDS011;16250;49.932;10.980;2023-01-15T14:59:19;11.00;;;10.60;;
29210;SDS011;16250;49.932;10.980;2023-01-15T15:02:23;9.20;;;8.90;;
29210;SDS011;16250;49.932;10.980;2023-01-15T15:05:01;10.55;;;10.15;;
29210;SDS011;16250;49.932;10.980;2023-01-15T15:07:35;9.63;;;9.32;;
29210;SDS011;16250;49.932;10.980;2023-01-15T15:12:48;9.48;;;9.18;;
29210;SDS011;16250;49.932;10.980;2023-01-15T15:15:34;9.40;;;9.10;;
29210;SDS011;16250;49.932;10.980;2023-01-15T15:20:59;11.77;;;11.38;;
29210;SDS011;16250;49.932;10.980;2023-01-15T15:23:49;9.73;;;9.43;;
29210;SDS011;16250;49.932;10.980;2023-01-15T15:26:33;9.38;;;9.07;;
29210;SDS011;16250;49.932;10.980;2023-01-15T15:34:09;7.32;;;7.07;;
29210;SDS011;16250;49.932;10.980;2023-01-15T15:36:54;7.95;;;7.65;;
29210;SDS011;16250;49.932;10.980;2023-01-15T15:39:27;7.43;;;7.20;;
29210;SDS011;16250;49.932;10.980;2023-01-15T15:41:54;12.10;;;11.70;;
29210;SDS011;16250;49.932;10.980;2023-01-15T15:44:54;12.60;;;12.10;;
29210;SDS011;16250;49.932;10.980;2023-01-15T15:47:42;10.10;;;9.73;;
29210;SDS011;16250;49.932;10.980;2023-01-15T15:50:27;12.82;;;12.32;;
29210;SDS011;16250;49.932;10.980;2023-01-15T15:52:58;9.40;;;9.10;;
29210;SDS011;16250;49.932;10.980;2023-01-15T15:55:32;8.52;;;8.02;;
29210;SDS011;16250;49.932;10.980;2023-01-15T15:58:06;9.15;;;8.85;;
29210;SDS011;16250;49.932;10.980;2023-01-15T16:00:34;9.30;;;9.00;;
29210;SDS011;16250;49.932;10.980;2023-01-15T16:03:06;10.52;;;10.13;;
29210;SDS011;16250;49.932;10.980;2023-01-15T16:05:41;8.43;;;8.13;;
29210;SDS011;16250;49.932;10.980;2023-01-15T16:08:14;8.63;;;8.32;;
29210;SDS011;16250;49.932;10.980;2023-01-15T16:10:40;8.18;;;7.88;;
29210;SDS011;16250;49.932;10.980;2023-01-15T16:13:09;7.15;;;6.95;;
29210;SDS011;16250;49.932;10.980;2023-01-15T16:15:40;8.30;;;8.00;;
29210;SDS011;16250;49.932;10.980;2023-01-15T16:18:12;8.82;;;8.52;;
29210;SDS011;16250;49.932;10.980;2023-01-15T16:20:46;6.80;;;6.60;;
29210;SDS011;16250;49.932;10.980;2023-01-15T16:23:21;8.35;;;8.05;;
29210;SDS011;16250;49.932;10.980;2023-01-15T16:25:59;8.48;;;8.18;;
29210;SDS011;16250;49.932;10.980;2023-01-15T16:28:36;8.25;;;7.95;;
29210;SDS011;16250;49.932;10.980;2023-01-15T16:31:06;8.15;;;7.82;;
29210;SDS011;16250;49.932;10.980;2023-01-15T16:33:32;6.60;;;6.40;;
29210;SDS011;16250;49.932;10.980;2023-01-15T16:36:00;7.90;;;7.60;;